Time;durP1;ratioP1;P1;durP2;ratioP2;P2;SDS_P1;SDS_P2;PMS_P1;PMS_P2;Temp;Humidity;BMP_temperature;BMP_pressure;BME280_temperature;BME280_humidity;BME280_pressure;Samples;Min_cycle;Max_cycle;Signal;HPM_P1;HPM_P2
2023/08/08 00:00:11;;;;;;;6.57;2.72;;;13.20;99.90;;;;;;5052298;28;20070;-86
2023/08/08 00:02:37;;;;;;;15.90;3.38;;;13.20;99.90;;;;;;5063929;28;20044;-84
2023/08/08 00:05:03;;;;;;;14.27;3.30;;;13.20;99.90;;;;;;5068367;28;20262;-90
2023/08/08 00:07:31;;;;;;;12.75;3.30;;;13.20;99.90;;;;;;5070463;28;20374;-84
2023/08/08 00:09:57;;;;;;;8.68;3.47;;;13.20;99.90;;;;;;5048176;28;20031;-86
2023/08/08 00:12:24;;;;;;;17.30;3.88;;;13.10;99.90;;;;;;5058303;28;20028;-85
2023/08/08 00:14:50;;;;;;;10.02;2.97;;;13.10;99.90;;;;;;5065638;28;20032;-86
2023/08/08 00:17:15;;;;;;;10.82;3.22;;;13.10;99.90;;;;;;5059405;28;20040;-84
2023/08/08 00:19:41;;;;;;;10.68;2.95;;;13.10;99.90;;;;;;5068532;28;20028;-85
2023/08/08 00:22:06;;;;;;;11.35;3.03;;;13.10;99.90;;;;;;5069224;28;20043;-83
2023/08/08 00:24:32;;;;;;;21.83;3.13;;;13.10;99.90;;;;;;5061988;28;20436;-85
2023/08/08 00:26:59;;;;;;;12.10;3.33;;;13.00;99.90;;;;;;5060381;28;20024;-88
2023/08/08 00:29:24;;;;;;;8.80;2.92;;;13.00;99.90;;;;;;5068984;28;20028;-87
2023/08/08 00:31:50;;;;;;;19.00;3.35;;;13.00;99.90;;;;;;5063206;28;20028;-86
2023/08/08 00:34:15;;;;;;;11.32;2.85;;;13.00;99.90;;;;;;5067470;28;20131;-85
2023/08/08 00:36:41;;;;;;;11.48;3.50;;;13.00;99.90;;;;;;5061312;28;20021;-83
2023/08/08 00:39:07;;;;;;;7.05;3.42;;;13.00;99.90;;;;;;5066413;28;20468;-86
2023/08/08 00:41:33;;;;;;;10.60;2.85;;;13.00;99.90;;;;;;5066159;28;20028;-86
2023/08/08 00:43:58;;;;;;;5.40;3.08;;;12.90;99.90;;;;;;5060914;28;20098;-84
2023/08/08 00:46:24;;;;;;;4.03;2.60;;;12.90;99.90;;;;;;5065225;28;20033;-85
2023/08/08 00:48:54;;;;;;;14.35;3.15;;;13.00;99.90;;;;;;5063892;28;20036;-85
2023/08/08 00:51:21;;;;;;;14.68;3.05;;;12.90;99.90;;;;;;5066358;28;20036;-86
2023/08/08 00:53:48;;;;;;;11.98;3.00;;;13.00;99.90;;;;;;5067679;28;20052;-89
2023/08/08 00:56:14;;;;;;;19.23;3.42;;;13.00;99.90;;;;;;5066697;28;20063;-85
2023/08/08 00:58:40;;;;;;;13.25;3.05;;;12.90;99.90;;;;;;5060216;28;20877;-87
2023/08/08 01:01:06;;;;;;;7.15;3.10;;;13.00;99.90;;;;;;5066785;28;20055;-84
2023/08/08 01:03:31;;;;;;;6.45;2.90;;;13.00;99.90;;;;;;5063693;28;20478;-87
2023/08/08 01:06:05;;;;;;;11.75;3.22;;;13.00;99.90;;;;;;5066115;28;20398;-85
2023/08/08 01:08:42;;;;;;;8.18;2.83;;;13.00;99.90;;;;;;5066628;28;20039;-86
2023/08/08 01:11:09;;;;;;;6.20;2.65;;;13.00;99.90;;;;;;5061799;28;20033;-84
2023/08/08 01:13:37;;;;;;;7.25;2.65;;;13.00;99.90;;;;;;5062383;28;20028;-85
2023/08/08 01:16:04;;;;;;;7.20;2.63;;;13.00;99.90;;;;;;5068961;28;20017;-88
2023/08/08 01:18:32;;;;;;;9.73;2.40;;;13.00;99.90;;;;;;5065140;28;20117;-85
2023/08/08 01:20:59;;;;;;;9.07;2.70;;;12.90;99.90;;;;;;5063520;28;20520;-87
2023/08/08 01:24:00;;;;;;;7.07;2.97;;;12.90;99.90;;;;;;5067478;28;20044;-87
2023/08/08 01:26:27;;;;;;;7.05;2.08;;;13.00;99.90;;;;;;5059707;28;20123;-86
2023/08/08 01:28:54;;;;;;;5.47;2.58;;;13.00;99.90;;;;;;5062938;28;20125;-83
2023/08/08 01:31:20;;;;;;;6.20;2.80;;;13.00;99.90;;;;;;5066746;28;20036;-86
2023/08/08 01:33:45;;;;;;;8.77;2.88;;;13.00;99.90;;;;;;5066575;28;20150;-84
2023/08/08 01:36:20;;;;;;;10.27;2.67;;;13.10;99.90;;;;;;5066381;28;20494;-86
2023/08/08 01:38:48;;;;;;;8.80;2.42;;;13.10;99.90;;;;;;5064254;28;20070;-86
2023/08/08 01:41:18;;;;;;;8.05;3.20;;;13.10;99.90;;;;;;5060918;28;20520;-85
2023/08/08 01:43:44;;;;;;;6.43;2.42;;;13.10;99.90;;;;;;5067180;28;20461;-84
2023/08/08 01:46:10;;;;;;;8.70;2.25;;;13.10;99.90;;;;;;5067775;28;20024;-85
2023/08/08 01:48:36;;;;;;;14.60;2.65;;;13.10;99.90;;;;;;5057996;28;20021;-87
2023/08/08 01:51:02;;;;;;;5.82;2.63;;;13.10;99.90;;;;;;5067695;28;20036;-85
2023/08/08 01:53:29;;;;;;;8.90;2.60;;;13.10;99.90;;;;;;5067819;28;20028;-87
2023/08/08 01:55:55;;;;;;;7.85;3.00;;;13.10;99.90;;;;;;5059820;28;20048;-85
2023/08/08 01:58:20;;;;;;;6.72;2.55;;;13.10;99.90;;;;;;5066674;28;20090;-88
2023/08/08 02:00:47;;;;;;;9.90;3.20;;;13.00;99.90;;;;;;5066115;28;20020;-86
2023/08/08 02:03:12;;;;;;;5.95;2.70;;;13.10;99.90;;;;;;5057685;28;20041;-87
2023/08/08 02:05:40;;;;;;;8.05;2.72;;;13.10;99.90;;;;;;5067122;28;20359;-87
2023/08/08 02:08:05;;;;;;;7.07;3.30;;;13.10;99.90;;;;;;5061989;28;20052;-84
2023/08/08 02:10:31;;;;;;;8.35;2.50;;;13.10;99.90;;;;;;5059393;28;20466;-85
2023/08/08 02:12:57;;;;;;;13.57;2.90;;;13.00;99.90;;;;;;5056991;28;20111;-84
2023/08/08 02:15:22;;;;;;;9.30;3.10;;;13.00;99.90;;;;;;5062245;28;20044;-86
2023/08/08 02:17:50;;;;;;;9.75;3.83;;;13.00;99.90;;;;;;5065886;28;20021;-91
2023/08/08 02:20:15;;;;;;;12.18;2.85;;;13.00;99.90;;;;;;5063480;28;20089;-83
2023/08/08 02:22:41;;;;;;;11.00;2.80;;;13.00;99.90;;;;;;5067113;28;20044;-81
2023/08/08 02:25:07;;;;;;;13.50;3.28;;;13.00;99.90;;;;;;5067480;28;20055;-85
2023/08/08 02:27:32;;;;;;;5.82;2.22;;;13.00;99.90;;;;;;5062426;28;20161;-84
2023/08/08 02:29:58;;;;;;;7.35;2.47;;;13.00;99.90;;;;;;5060768;28;20385;-81
2023/08/08 02:32:24;;;;;;;5.85;2.28;;;13.00;99.90;;;;;;5058765;28;20044;-84
2023/08/08 02:34:50;;;;;;;8.13;3.20;;;13.00;99.90;;;;;;5060727;28;20035;-82
2023/08/08 02:37:16;;;;;;;7.03;2.55;;;13.00;99.90;;;;;;5066434;28;20032;-88
2023/08/08 02:39:43;;;;;;;5.28;2.40;;;13.00;99.90;;;;;;5065387;28;20068;-83
2023/08/08 02:42:09;;;;;;;6.38;2.53;;;12.90;99.90;;;;;;5058797;28;20127;-85
2023/08/08 02:44:37;;;;;;;6.32;2.53;;;13.00;99.90;;;;;;5062018;28;20162;-81
2023/08/08 02:47:03;;;;;;;6.53;3.00;;;13.00;99.90;;;;;;5057856;28;20058;-89
2023/08/08 02:49:29;;;;;;;8.57;3.10;;;13.00;99.90;;;;;;5056664;28;20059;-86
2023/08/08 02:51:55;;;;;;;8.65;2.70;;;13.00;99.90;;;;;;5059357;28;20025;-83
2023/08/08 02:54:20;;;;;;;8.38;3.25;;;12.90;99.90;;;;;;5061338;28;20024;-89
2023/08/08 02:56:46;;;;;;;7.28;2.60;;;12.90;99.90;;;;;;5060950;28;20569;-86
2023/08/08 02:59:11;;;;;;;8.68;3.08;;;13.00;99.90;;;;;;5065976;28;20559;-84
2023/08/08 03:01:39;;;;;;;11.45;3.58;;;13.00;99.90;;;;;;5054123;28;20028;-89
2023/08/08 03:04:05;;;;;;;6.50;3.22;;;13.00;99.90;;;;;;5065491;28;20044;-84
2023/08/08 03:06:31;;;;;;;6.88;3.10;;;13.00;99.90;;;;;;5057605;28;20035;-87
2023/08/08 03:08:57;;;;;;;6.53;3.22;;;13.10;99.90;;;;;;5061195;28;20386;-85
2023/08/08 03:11:22;;;;;;;11.43;3.42;;;13.10;99.90;;;;;;5046802;28;20036;-85
2023/08/08 03:13:48;;;;;;;9.88;3.03;;;13.10;99.90;;;;;;5067206;28;20032;-86
2023/08/08 03:16:14;;;;;;;8.82;3.42;;;13.10;99.90;;;;;;5065734;28;20024;-83
2023/08/08 03:18:39;;;;;;;7.20;3.15;;;13.10;99.90;;;;;;5066271;28;20070;-81
2023/08/08 03:21:05;;;;;;;7.72;3.40;;;13.10;99.90;;;;;;5065813;28;20031;-84
2023/08/08 03:23:31;;;;;;;9.82;3.40;;;13.10;99.90;;;;;;5055446;28;20067;-83
2023/08/08 03:25:56;;;;;;;7.60;3.10;;;13.10;99.90;;;;;;5065772;28;20032;-84
2023/08/08 03:28:22;;;;;;;12.05;3.72;;;13.10;99.90;;;;;;5061582;28;20263;-85
2023/08/08 03:30:48;;;;;;;8.90;3.58;;;13.10;99.90;;;;;;5061433;28;20448;-82
2023/08/08 03:33:13;;;;;;;7.13;2.92;;;13.10;99.90;;;;;;5062042;28;20028;-84
2023/08/08 03:35:39;;;;;;;4.93;3.38;;;13.10;99.90;;;;;;5051771;28;20082;-82
2023/08/08 03:38:05;;;;;;;14.30;3.72;;;13.00;99.90;;;;;;5057970;28;20454;-89
2023/08/08 03:40:31;;;;;;;11.25;3.22;;;13.00;99.90;;;;;;5054137;28;20048;-84
2023/08/08 03:42:56;;;;;;;5.45;3.33;;;13.10;99.90;;;;;;5060432;28;20064;-82
2023/08/08 03:45:22;;;;;;;6.97;3.75;;;13.00;99.90;;;;;;5063445;28;20055;-84
2023/08/08 03:47:47;;;;;;;9.18;4.13;;;13.00;99.90;;;;;;5058624;28;20024;-83
2023/08/08 03:50:13;;;;;;;9.05;3.40;;;13.00;99.90;;;;;;5059564;28;20078;-84
2023/08/08 03:52:39;;;;;;;8.75;3.75;;;13.10;99.90;;;;;;5061082;28;20104;-79
2023/08/08 03:55:05;;;;;;;15.07;3.75;;;13.00;99.90;;;;;;5060820;28;20393;-84
2023/08/08 03:57:30;;;;;;;13.25;3.72;;;13.10;99.90;;;;;;5064752;28;20485;-83
2023/08/08 03:59:56;;;;;;;11.30;3.33;;;13.10;99.90;;;;;;5063794;28;20052;-81
2023/08/08 04:02:22;;;;;;;4.82;3.35;;;13.10;99.90;;;;;;5062240;28;20048;-85
2023/08/08 04:04:48;;;;;;;7.97;3.47;;;13.10;99.90;;;;;;5063448;28;20055;-83
2023/08/08 04:07:13;;;;;;;15.15;4.00;;;13.10;99.90;;;;;;5060485;28;20626;-83
2023/08/08 04:09:39;;;;;;;8.40;3.17;;;13.10;99.90;;;;;;5064152;28;20036;-83
2023/08/08 04:12:05;;;;;;;5.63;2.92;;;13.10;99.90;;;;;;5066529;28;20040;-85
2023/08/08 04:14:30;;;;;;;5.97;2.47;;;13.10;99.90;;;;;;5068745;28;20143;-83
2023/08/08 04:16:56;;;;;;;6.05;3.08;;;13.10;99.90;;;;;;5060731;28;20114;-83
2023/08/08 04:19:23;;;;;;;7.90;2.83;;;13.10;99.90;;;;;;5064141;28;20036;-84
2023/08/08 04:21:48;;;;;;;8.82;3.15;;;13.10;99.90;;;;;;5064982;28;20027;-84
2023/08/08 04:24:14;;;;;;;4.95;2.60;;;13.10;99.90;;;;;;5067918;28;20040;-83
2023/08/08 04:26:40;;;;;;;4.68;2.60;;;13.20;99.90;;;;;;5068097;28;20386;-83
2023/08/08 04:29:06;;;;;;;5.10;2.53;;;13.10;99.90;;;;;;5069072;28;20464;-84
2023/08/08 04:31:31;;;;;;;9.65;2.80;;;13.10;99.90;;;;;;5067919;28;20039;-85
2023/08/08 04:34:00;;;;;;;11.45;2.75;;;13.10;99.90;;;;;;5068764;28;20028;-81
2023/08/08 04:36:26;;;;;;;9.20;2.67;;;13.10;99.90;;;;;;5068647;28;20036;-82
2023/08/08 04:38:52;;;;;;;7.28;2.95;;;13.10;99.90;;;;;;5064983;28;20025;-83
2023/08/08 04:41:17;;;;;;;12.10;3.40;;;13.10;99.90;;;;;;5063325;28;20036;-86
2023/08/08 04:43:43;;;;;;;16.35;3.38;;;13.10;99.90;;;;;;5068370;28;20131;-80
2023/08/08 04:46:10;;;;;;;6.32;2.65;;;13.10;99.90;;;;;;5061887;28;20477;-81
2023/08/08 04:48:37;;;;;;;9.40;3.38;;;13.10;99.90;;;;;;5061406;28;20429;-81
2023/08/08 04:51:06;;;;;;;18.65;3.20;;;13.10;99.90;;;;;;5061958;28;20044;-82
2023/08/08 04:53:31;;;;;;;9.77;2.95;;;13.10;99.90;;;;;;5064482;28;20401;-82
2023/08/08 04:55:57;;;;;;;11.25;3.17;;;13.10;99.90;;;;;;5067407;28;20036;-80
2023/08/08 04:58:24;;;;;;;4.47;2.40;;;13.10;99.90;;;;;;5048553;28;20441;-79
2023/08/08 05:00:54;;;;;;;7.43;2.60;;;13.10;99.90;;;;;;5068292;28;20124;-80
2023/08/08 05:03:20;;;;;;;7.75;2.38;;;13.10;99.90;;;;;;5068558;28;20127;-83
2023/08/08 05:05:46;;;;;;;5.78;2.40;;;13.10;99.90;;;;;;5068163;28;20434;-88
2023/08/08 05:08:15;;;;;;;6.75;2.13;;;13.10;99.90;;;;;;5068650;28;20493;-82
2023/08/08 05:10:40;;;;;;;7.15;2.80;;;13.10;99.90;;;;;;5060510;28;20556;-80
2023/08/08 05:13:06;;;;;;;4.28;2.42;;;13.10;99.90;;;;;;5068786;28;20120;-80
2023/08/08 05:15:32;;;;;;;5.72;2.63;;;13.10;99.90;;;;;;5068631;28;20115;-85
2023/08/08 05:17:59;;;;;;;7.38;2.17;;;13.10;99.90;;;;;;5068488;28;20028;-82
2023/08/08 05:20:25;;;;;;;2.92;1.90;;;13.10;99.90;;;;;;5066963;28;20525;-82
2023/08/08 05:22:51;;;;;;;3.63;2.22;;;13.10;99.90;;;;;;5063741;28;20063;-81
2023/08/08 05:25:16;;;;;;;6.60;2.70;;;13.10;99.90;;;;;;5067721;28;20028;-84
2023/08/08 05:27:42;;;;;;;8.18;2.75;;;13.10;99.90;;;;;;5066696;28;20063;-80
2023/08/08 05:30:08;;;;;;;6.35;2.70;;;13.20;99.90;;;;;;5067996;28;20079;-80
2023/08/08 05:32:34;;;;;;;7.32;3.45;;;13.20;99.90;;;;;;5066999;28;20052;-85
2023/08/08 05:35:00;;;;;;;3.70;2.05;;;13.30;99.90;;;;;;5067732;28;20051;-81
2023/08/08 05:37:26;;;;;;;13.30;3.28;;;13.40;99.90;;;;;;5066182;28;20480;-81
2023/08/08 05:39:53;;;;;;;4.15;1.90;;;13.40;99.90;;;;;;5066738;28;20089;-86
2023/08/08 05:42:19;;;;;;;9.02;2.20;;;13.50;99.90;;;;;;5058084;28;20158;-83
2023/08/08 05:44:44;;;;;;;8.38;2.55;;;13.50;99.90;;;;;;5065808;28;20029;-84
2023/08/08 05:47:10;;;;;;;6.88;2.20;;;13.50;99.90;;;;;;5046827;28;20081;-80
2023/08/08 05:49:38;;;;;;;3.63;1.90;;;13.50;99.90;;;;;;5062457;28;20024;-87
2023/08/08 05:52:04;;;;;;;2.17;1.73;;;13.50;99.90;;;;;;5068190;28;20180;-81
2023/08/08 05:54:29;;;;;;;6.70;2.55;;;13.50;99.90;;;;;;5067570;28;20032;-83
2023/08/08 05:56:55;;;;;;;3.60;2.25;;;13.50;99.90;;;;;;5066731;28;20028;-82
2023/08/08 05:59:20;;;;;;;5.97;2.47;;;13.50;99.90;;;;;;5066891;28;20477;-82
2023/08/08 06:01:46;;;;;;;6.88;2.50;;;13.60;99.90;;;;;;5066818;28;20028;-83
2023/08/08 06:04:12;;;;;;;8.02;2.03;;;13.60;99.90;;;;;;5067886;28;20044;-81
2023/08/08 06:06:39;;;;;;;10.65;2.55;;;13.60;99.90;;;;;;5067028;28;20078;-82
2023/08/08 06:09:05;;;;;;;6.93;2.47;;;13.70;99.90;;;;;;5066667;28;20036;-86
2023/08/08 06:11:31;;;;;;;8.88;2.92;;;13.70;99.90;;;;;;5063215;28;20028;-84
2023/08/08 06:13:56;;;;;;;5.05;2.35;;;13.70;99.90;;;;;;5067591;28;20103;-83
2023/08/08 06:16:22;;;;;;;6.00;2.60;;;13.80;99.90;;;;;;5054344;28;20048;-81
2023/08/08 06:18:49;;;;;;;12.80;2.90;;;13.80;99.90;;;;;;5064518;28;20119;-79
2023/08/08 06:21:15;;;;;;;5.63;2.75;;;13.80;99.90;;;;;;5058203;28;20036;-88
2023/08/08 06:23:41;;;;;;;8.07;3.33;;;13.80;99.90;;;;;;5066285;28;20532;-84
2023/08/08 06:26:06;;;;;;;5.55;2.90;;;13.90;99.90;;;;;;5067127;28;20051;-82
2023/08/08 06:28:32;;;;;;;7.28;2.70;;;13.90;99.90;;;;;;5067421;28;20082;-82
2023/08/08 06:30:58;;;;;;;7.28;3.63;;;13.90;99.90;;;;;;5066368;28;20024;-83
2023/08/08 06:33:24;;;;;;;10.00;3.03;;;13.90;99.90;;;;;;5052218;28;20032;-79
2023/08/08 06:35:49;;;;;;;8.55;3.35;;;14.00;99.90;;;;;;5065285;28;20390;-80
2023/08/08 06:38:15;;;;;;;6.95;2.90;;;14.00;99.90;;;;;;5065679;28;20074;-82
2023/08/08 06:40:41;;;;;;;6.05;2.80;;;14.00;99.90;;;;;;5066780;28;20045;-81
2023/08/08 06:43:06;;;;;;;7.43;3.03;;;14.00;99.90;;;;;;5065901;28;20052;-84
2023/08/08 06:45:32;;;;;;;11.25;2.80;;;14.00;99.90;;;;;;5066990;28;20032;-85
2023/08/08 06:47:58;;;;;;;6.25;2.55;;;14.00;99.90;;;;;;5067056;28;20127;-85
2023/08/08 06:50:26;;;;;;;7.10;2.67;;;14.10;99.90;;;;;;5066842;28;20256;-80
2023/08/08 06:52:52;;;;;;;7.82;2.67;;;14.10;99.90;;;;;;5064618;28;20032;-81
2023/08/08 06:55:18;;;;;;;8.55;2.20;;;14.00;99.90;;;;;;5066085;28;20029;-89
2023/08/08 06:57:43;;;;;;;7.45;2.78;;;14.10;99.90;;;;;;5066318;28;20039;-85
2023/08/08 07:00:13;;;;;;;3.63;2.50;;;14.10;99.90;;;;;;5066929;28;20462;-83
2023/08/08 07:02:39;;;;;;;7.38;3.70;;;14.10;99.90;;;;;;5066723;28;20487;-85
2023/08/08 07:05:06;;;;;;;3.97;2.78;;;14.10;99.90;;;;;;5066804;28;20123;-81
2023/08/08 07:07:33;;;;;;;9.35;2.90;;;14.10;99.90;;;;;;5067136;28;20524;-80
2023/08/08 07:09:59;;;;;;;6.72;3.13;;;14.10;99.90;;;;;;5066182;28;20154;-81
2023/08/08 07:12:25;;;;;;;7.13;2.50;;;14.10;99.90;;;;;;5066519;28;20559;-80
2023/08/08 07:14:50;;;;;;;7.32;2.80;;;14.10;99.90;;;;;;5067017;28;20032;-82
2023/08/08 07:17:16;;;;;;;5.95;2.45;;;14.20;99.90;;;;;;5066909;28;20025;-86
2023/08/08 07:19:41;;;;;;;4.97;2.63;;;14.20;99.90;;;;;;5066780;28;20082;-81
2023/08/08 07:22:08;;;;;;;7.82;2.67;;;14.20;99.90;;;;;;5065797;28;20036;-81
2023/08/08 07:24:34;;;;;;;5.80;2.85;;;14.20;99.90;;;;;;5066625;28;20027;-81
2023/08/08 07:26:59;;;;;;;5.05;2.53;;;14.20;99.90;;;;;;5067171;28;20028;-82
2023/08/08 07:29:25;;;;;;;7.03;2.97;;;14.20;99.90;;;;;;5066434;28;20039;-86
2023/08/08 07:31:52;;;;;;;6.65;2.30;;;14.30;99.90;;;;;;5066791;28;20462;-82
2023/08/08 07:34:20;;;;;;;9.13;2.72;;;14.30;99.90;;;;;;5066490;28;20495;-83
2023/08/08 07:36:46;;;;;;;8.40;2.60;;;14.40;99.90;;;;;;5067282;28;20036;-84
2023/08/08 07:39:12;;;;;;;3.58;2.00;;;14.40;99.90;;;;;;5066985;28;20039;-80
2023/08/08 07:41:37;;;;;;;9.48;2.78;;;14.50;99.90;;;;;;5066702;28;20028;-82
2023/08/08 07:44:04;;;;;;;6.93;2.53;;;14.60;99.90;;;;;;5066388;28;20036;-85
2023/08/08 07:46:33;;;;;;;6.10;2.50;;;14.70;99.90;;;;;;5066980;28;20115;-92
2023/08/08 07:49:03;;;;;;;5.72;2.97;;;14.70;99.90;;;;;;5070323;28;20032;-80
2023/08/08 07:51:29;;;;;;;10.15;4.07;;;14.70;99.90;;;;;;5070487;28;20501;-82
2023/08/08 07:53:54;;;;;;;3.47;2.40;;;14.70;99.90;;;;;;5070366;28;20157;-82
2023/08/08 07:56:20;;;;;;;3.85;2.70;;;14.70;99.90;;;;;;5070151;28;20032;-84
2023/08/08 07:58:45;;;;;;;9.88;2.80;;;14.70;99.90;;;;;;5069599;28;20035;-79
2023/08/08 08:01:11;;;;;;;4.63;2.58;;;14.70;99.90;;;;;;5070744;28;20037;-85
2023/08/08 08:03:37;;;;;;;3.90;2.88;;;14.80;99.90;;;;;;5070185;28;20043;-86
2023/08/08 08:06:03;;;;;;;9.60;3.17;;;14.90;99.90;;;;;;5064795;28;20036;-84
2023/08/08 08:08:28;;;;;;;2.78;2.45;;;15.00;99.90;;;;;;5068338;28;20032;-82
2023/08/08 08:10:55;;;;;;;6.75;3.15;;;15.10;99.90;;;;;;5070189;28;20082;-83
2023/08/08 08:13:20;;;;;;;4.43;2.55;;;15.30;99.90;;;;;;5069919;28;20086;-80
2023/08/08 08:15:46;;;;;;;9.73;2.97;;;15.40;99.90;;;;;;5069996;28;20032;-87
2023/08/08 08:18:13;;;;;;;7.38;2.67;;;15.40;99.90;;;;;;5052150;28;20035;-82
2023/08/08 08:20:39;;;;;;;11.45;3.00;;;15.40;99.90;;;;;;5070375;28;20647;-81
2023/08/08 08:23:05;;;;;;;7.40;3.13;;;15.50;99.90;;;;;;5069714;28;20432;-90
2023/08/08 08:25:31;;;;;;;4.63;2.42;;;15.50;99.90;;;;;;5060229;28;20090;-86
2023/08/08 08:27:57;;;;;;;6.40;2.53;;;15.60;99.90;;;;;;5069979;28;20035;-79
2023/08/08 08:30:26;;;;;;;3.38;2.67;;;15.70;99.90;;;;;;5069813;28;20401;-80
2023/08/08 08:32:52;;;;;;;6.57;3.13;;;15.70;99.90;;;;;;5069634;28;20386;-82
2023/08/08 08:35:18;;;;;;;4.47;2.88;;;15.70;99.90;;;;;;5069586;28;20020;-82
2023/08/08 08:37:43;;;;;;;7.55;2.45;;;15.80;99.90;;;;;;5069346;28;20028;-82
2023/08/08 08:40:10;;;;;;;13.02;2.20;;;15.90;99.90;;;;;;5069457;28;20044;-84
2023/08/08 08:42:37;;;;;;;4.68;2.25;;;16.00;99.90;;;;;;5069575;28;20642;-86
2023/08/08 08:45:04;;;;;;;6.13;2.00;;;16.00;99.90;;;;;;5069784;28;20044;-89
2023/08/08 08:47:31;;;;;;;4.85;2.00;;;16.10;99.90;;;;;;5069402;28;20036;-82
2023/08/08 08:49:57;;;;;;;7.13;2.67;;;16.00;99.90;;;;;;5060453;28;20379;-85
2023/08/08 08:52:23;;;;;;;5.22;2.30;;;16.10;99.90;;;;;;5069258;28;20421;-87
2023/08/08 08:54:51;;;;;;;6.32;2.00;;;16.10;99.90;;;;;;5069490;28;20020;-86
2023/08/08 08:57:17;;;;;;;6.15;2.42;;;16.10;99.90;;;;;;5069832;28;20093;-91
2023/08/08 08:59:43;;;;;;;8.45;2.50;;;16.20;99.90;;;;;;5066890;28;20029;-85
2023/08/08 09:02:10;;;;;;;2.95;1.77;;;16.20;99.90;;;;;;5068078;28;20078;-84
2023/08/08 09:04:36;;;;;;;6.22;2.17;;;16.30;99.90;;;;;;5069150;28;20074;-83
2023/08/08 09:07:05;;;;;;;6.07;2.60;;;16.30;99.90;;;;;;5063531;28;20535;-87
2023/08/08 09:09:32;;;;;;;5.25;1.92;;;16.40;99.90;;;;;;5063453;28;20417;-89
2023/08/08 09:11:58;;;;;;;9.98;2.22;;;16.40;99.90;;;;;;5060949;28;20024;-88
2023/08/08 09:14:26;;;;;;;5.68;2.33;;;16.40;99.90;;;;;;5067728;28;20029;-82
2023/08/08 09:16:54;;;;;;;4.30;1.90;;;16.30;99.90;;;;;;5065277;28;20021;-84
2023/08/08 09:19:21;;;;;;;7.53;2.45;;;16.40;99.90;;;;;;5060773;28;20028;-83
2023/08/08 09:21:47;;;;;;;7.15;2.47;;;16.40;99.90;;;;;;5068448;28;20039;-84
2023/08/08 09:24:13;;;;;;;7.43;2.25;;;16.40;99.90;;;;;;5069275;28;20127;-82
2023/08/08 09:26:40;;;;;;;9.70;2.17;;;16.50;99.90;;;;;;5068750;28;20124;-81
2023/08/08 09:29:06;;;;;;;8.13;2.40;;;16.50;99.90;;;;;;5068697;28;20037;-83
2023/08/08 09:31:34;;;;;;;7.15;4.35;;;16.60;99.90;;;;;;5069095;28;20036;-83
2023/08/08 09:34:02;;;;;;;7.65;2.17;;;16.80;99.90;;;;;;5063841;28;20559;-81
2023/08/08 09:36:27;;;;;;;4.53;2.30;;;16.80;99.90;;;;;;5068497;28;20102;-81
2023/08/08 09:38:54;;;;;;;8.18;2.08;;;16.80;99.90;;;;;;5068591;28;20025;-84
2023/08/08 09:41:23;;;;;;;9.68;2.55;;;16.90;99.90;;;;;;5059653;28;20051;-83
2023/08/08 09:43:52;;;;;;;4.85;2.10;;;16.90;99.90;;;;;;5065292;28;20055;-87
2023/08/08 09:46:22;;;;;;;6.97;2.63;;;16.80;99.90;;;;;;5065267;28;20032;-87
2023/08/08 09:48:49;;;;;;;8.85;2.33;;;16.70;99.90;;;;;;5066698;28;20059;-84
2023/08/08 09:51:15;;;;;;;5.38;2.60;;;16.80;99.90;;;;;;5062384;28;20036;-83
2023/08/08 09:53:46;;;;;;;4.65;1.92;;;16.80;99.90;;;;;;5068766;28;20063;-78
2023/08/08 09:56:13;;;;;;;7.25;2.88;;;16.80;99.90;;;;;;5047485;28;20033;-86
2023/08/08 09:58:40;;;;;;;7.00;2.42;;;16.80;99.90;;;;;;5063527;28;20029;-82
2023/08/08 10:01:06;;;;;;;5.82;1.92;;;16.70;99.90;;;;;;5062713;28;20037;-81
2023/08/08 10:03:32;;;;;;;11.32;2.53;;;16.60;99.90;;;;;;5060868;28;20033;-87
2023/08/08 10:05:59;;;;;;;6.40;1.98;;;16.50;99.90;;;;;;5066626;28;20025;-82
2023/08/08 10:08:24;;;;;;;6.50;2.20;;;16.60;99.90;;;;;;5064898;28;20046;-80
2023/08/08 10:10:50;;;;;;;3.72;2.25;;;16.40;99.90;;;;;;5060950;28;20362;-83
2023/08/08 10:13:25;;;;;;;7.43;2.08;;;16.40;99.90;;;;;;5067580;28;20111;-83
2023/08/08 10:15:52;;;;;;;13.95;2.97;;;16.40;99.90;;;;;;5063336;28;20056;-85
2023/08/08 10:18:20;;;;;;;4.70;2.28;;;16.40;99.90;;;;;;5061886;28;20075;-85
2023/08/08 10:20:50;;;;;;;5.28;2.58;;;16.30;99.90;;;;;;5066638;28;20024;-86
2023/08/08 10:23:20;;;;;;;10.02;2.72;;;16.30;99.90;;;;;;5067532;28;20121;-84
2023/08/08 10:25:51;;;;;;;5.63;2.97;;;16.30;99.90;;;;;;5065787;28;20062;-86
2023/08/08 10:28:19;;;;;;;5.03;2.45;;;16.20;99.90;;;;;;5067904;28;20033;-81
2023/08/08 10:30:59;;;;;;;6.15;2.28;;;16.20;99.90;;;;;;5065633;28;20119;-79
2023/08/08 10:33:43;;;;;;;8.93;2.65;;;16.30;99.90;;;;;;5063232;28;20074;-82
2023/08/08 10:36:09;;;;;;;5.63;2.38;;;16.30;99.90;;;;;;5063707;28;20078;-81
2023/08/08 10:38:53;;;;;;;4.07;2.50;;;16.30;99.90;;;;;;5058385;28;20035;-82
2023/08/08 10:41:21;;;;;;;6.15;2.42;;;16.40;99.90;;;;;;5063816;28;20052;-81
2023/08/08 10:43:57;;;;;;;6.57;2.70;;;16.40;99.90;;;;;;5043903;28;20049;-84
2023/08/08 10:46:24;;;;;;;6.50;2.65;;;16.40;99.90;;;;;;5060357;28;20454;-82
2023/08/08 10:48:55;;;;;;;7.55;2.85;;;16.50;99.90;;;;;;5067607;28;20021;-82
2023/08/08 10:51:21;;;;;;;11.27;3.08;;;16.50;99.90;;;;;;5064221;28;20152;-83
2023/08/08 10:53:50;;;;;;;3.88;2.42;;;16.40;99.90;;;;;;5057948;28;20036;-86
2023/08/08 10:56:18;;;;;;;8.70;3.15;;;16.60;99.90;;;;;;5062766;28;20082;-83
2023/08/08 10:58:48;;;;;;;8.18;3.22;;;16.80;99.90;;;;;;5064939;28;20017;-86
2023/08/08 11:01:16;;;;;;;6.50;2.83;;;17.10;99.90;;;;;;5064774;28;20039;-83
2023/08/08 11:03:43;;;;;;;12.10;2.85;;;17.30;99.90;;;;;;5064920;28;20040;-80
2023/08/08 11:06:10;;;;;;;11.13;3.50;;;17.40;99.90;;;;;;5065223;28;20115;-85
2023/08/08 11:08:38;;;;;;;12.02;3.58;;;17.60;99.90;;;;;;5064227;28;20508;-83
2023/08/08 11:11:06;;;;;;;6.95;3.08;;;17.70;99.90;;;;;;5065912;28;20072;-82
2023/08/08 11:13:32;;;;;;;13.43;4.03;;;17.80;99.90;;;;;;5061967;28;20078;-82
2023/08/08 11:15:57;;;;;;;6.85;3.05;;;17.90;99.90;;;;;;5065501;28;20021;-83
2023/08/08 11:18:23;;;;;;;11.18;2.90;;;18.10;99.90;;;;;;5063534;28;20528;-88
2023/08/08 11:20:49;;;;;;;8.85;2.97;;;18.10;99.90;;;;;;5063756;28;20024;-88
2023/08/08 11:23:16;;;;;;;5.68;3.03;;;18.00;99.90;;;;;;5067984;28;20039;-81
2023/08/08 11:25:44;;;;;;;9.98;3.33;;;18.00;99.90;;;;;;5068628;28;20028;-82
2023/08/08 11:28:12;;;;;;;8.18;3.70;;;18.30;99.90;;;;;;5050884;28;20033;-84
2023/08/08 11:30:43;;;;;;;10.45;3.47;;;18.30;99.90;;;;;;5069341;28;20028;-84
2023/08/08 11:33:10;;;;;;;10.20;3.00;;;18.40;99.90;;;;;;5048235;28;20489;-82
2023/08/08 11:35:36;;;;;;;12.32;3.50;;;18.50;99.90;;;;;;5069750;28;20040;-82
2023/08/08 11:38:04;;;;;;;8.50;3.03;;;18.60;99.90;;;;;;5068954;28;20431;-88
2023/08/08 11:40:30;;;;;;;14.38;4.38;;;18.60;99.90;;;;;;5061613;28;20096;-80
2023/08/08 11:42:56;;;;;;;8.40;3.42;;;18.50;99.90;;;;;;5063167;28;20516;-82
2023/08/08 11:45:23;;;;;;;7.18;3.60;;;18.40;99.90;;;;;;5067235;28;20466;-84
2023/08/08 11:47:49;;;;;;;7.30;3.25;;;18.30;99.90;;;;;;5066860;28;20051;-82
2023/08/08 11:50:15;;;;;;;5.47;3.45;;;18.20;99.90;;;;;;5063566;28;20032;-86
2023/08/08 11:52:42;;;;;;;6.55;3.70;;;17.90;99.90;;;;;;5069528;28;20024;-82
2023/08/08 11:55:12;;;;;;;9.73;4.53;;;17.50;99.90;;;;;;5068562;28;20111;-84
2023/08/08 11:57:39;;;;;;;10.75;4.78;;;17.30;99.90;;;;;;5066027;28;20025;-84
2023/08/08 12:00:12;;;;;;;9.38;4.03;;;16.90;99.90;;;;;;5067901;28;20031;-80
2023/08/08 12:02:39;;;;;;;7.90;4.70;;;16.60;99.90;;;;;;5061343;28;20041;-82
2023/08/08 12:05:06;;;;;;;10.13;4.35;;;16.40;99.90;;;;;;5063872;28;20117;-83
2023/08/08 12:07:34;;;;;;;9.00;4.53;;;16.20;99.90;;;;;;5062628;28;20502;-85
2023/08/08 12:10:00;;;;;;;6.75;4.13;;;16.10;99.90;;;;;;5063570;28;20111;-84
2023/08/08 12:12:27;;;;;;;8.57;4.13;;;16.10;99.90;;;;;;5068267;28;20040;-91
2023/08/08 12:14:54;;;;;;;11.00;4.80;;;16.00;99.90;;;;;;5068951;28;20063;-81
2023/08/08 12:17:22;;;;;;;8.40;4.15;;;15.90;99.90;;;;;;5066885;28;20025;-88
2023/08/08 12:19:48;;;;;;;11.43;4.78;;;15.80;99.90;;;;;;5066571;28;20390;-84
2023/08/08 12:22:15;;;;;;;16.17;5.35;;;15.70;99.90;;;;;;5067032;28;20111;-83
2023/08/08 12:24:40;;;;;;;7.25;3.55;;;15.70;99.90;;;;;;5067061;28;20063;-85
2023/08/08 12:27:06;;;;;;;6.82;3.80;;;15.70;99.90;;;;;;5066857;28;20505;-83
2023/08/08 12:29:32;;;;;;;8.45;3.72;;;15.70;99.90;;;;;;5065378;28;20024;-89
2023/08/08 12:31:57;;;;;;;5.50;3.58;;;15.70;99.90;;;;;;5067362;28;20024;-83
2023/08/08 12:34:23;;;;;;;5.32;3.88;;;15.70;99.90;;;;;;5069586;28;20029;-84
2023/08/08 12:36:48;;;;;;;7.45;4.18;;;15.70;99.90;;;;;;5044743;28;20358;-80
2023/08/08 12:39:14;;;;;;;7.65;3.80;;;15.90;99.90;;;;;;5064291;28;20055;-83
2023/08/08 12:41:40;;;;;;;10.90;3.95;;;16.10;99.90;;;;;;5063602;28;20046;-84